sensor_id;sensor_type;location;lat;lon;timestamp;P1;durP1;ratioP1;P2;durP2;ratioP2
2452;SDS011;63678;47.994;7.854;2023-05-07T00:01:49;7.97;;;3.78;;
2452;SDS011;63678;47.994;7.854;2023-05-07T00:04:21;6.20;;;3.58;;
2452;SDS011;63678;47.994;7.854;2023-05-07T00:06:54;6.83;;;3.83;;
2452;SDS011;63678;47.994;7.854;2023-05-07T00:09:26;7.20;;;3.65;;
2452;SDS011;63678;47.994;7.854;2023-05-07T00:11:59;6.32;;;3.67;;
2452;SDS011;63678;47.994;7.854;2023-05-07T00:14:32;8.00;;;3.47;;
2452;SDS011;63678;47.994;7.854;2023-05-07T00:17:04;6.50;;;3.58;;
2452;SDS011;63678;47.994;7.854;2023-05-07T00:19:36;7.20;;;4.50;;
2452;SDS011;63678;47.994;7.854;2023-05-07T00:22:08;8.55;;;3.50;;
2452;SDS011;63678;47.994;7.854;2023-05-07T00:24:41;7.88;;;4.05;;
2452;SDS011;63678;47.994;7.854;2023-05-07T00:27:14;7.53;;;3.75;;
2452;SDS011;63678;47.994;7.854;2023-05-07T00:29:46;6.63;;;4.18;;
2452;SDS011;63678;47.994;7.854;2023-05-07T00:32:18;8.27;;;3.93;;
2452;SDS011;63678;47.994;7.854;2023-05-07T00:34:50;8.35;;;4.05;;
2452;SDS011;63678;47.994;7.854;2023-05-07T00:37:23;7.10;;;4.10;;
2452;SDS011;63678;47.994;7.854;2023-05-07T00:39:55;6.80;;;3.30;;
2452;SDS011;63678;47.994;7.854;2023-05-07T00:42:27;7.57;;;4.00;;
2452;SDS011;63678;47.994;7.854;2023-05-07T00:45:00;6.37;;;3.70;;
2452;SDS011;63678;47.994;7.854;2023-05-07T00:47:33;8.35;;;3.97;;
2452;SDS011;63678;47.994;7.854;2023-05-07T00:50:05;7.00;;;3.80;;
2452;SDS011;63678;47.994;7.854;2023-05-07T00:52:39;7.90;;;3.85;;
2452;SDS011;63678;47.994;7.854;2023-05-07T00:55:11;9.23;;;4.18;;
2452;SDS011;63678;47.994;7.854;2023-05-07T00:57:46;8.50;;;3.97;;
2452;SDS011;63678;47.994;7.854;2023-05-07T01:00:18;7.60;;;4.30;;
2452;SDS011;63678;47.994;7.854;2023-05-07T01:02:51;7.25;;;3.90;;
2452;SDS011;63678;47.994;7.854;2023-05-07T01:05:24;6.55;;;3.85;;
2452;SDS011;63678;47.994;7.854;2023-05-07T01:07:58;6.47;;;3.90;;
2452;SDS011;63678;47.994;7.854;2023-05-07T01:10:31;6.40;;;4.00;;
2452;SDS011;63678;47.994;7.854;2023-05-07T01:13:04;7.03;;;4.10;;
2452;SDS011;63678;47.994;7.854;2023-05-07T01:15:37;6.78;;;4.10;;
2452;SDS011;63678;47.994;7.854;2023-05-07T01:18:09;6.43;;;3.72;;
2452;SDS011;63678;47.994;7.854;2023-05-07T01:20:42;6.32;;;4.40;;
2452;SDS011;63678;47.994;7.854;2023-05-07T01:23:14;9.20;;;4.57;;
2452;SDS011;63678;47.994;7.854;2023-05-07T01:25:51;8.73;;;3.75;;
2452;SDS011;63678;47.994;7.854;2023-05-07T01:28:29;7.53;;;3.92;;
2452;SDS011;63678;47.994;7.854;2023-05-07T01:31:03;8.15;;;3.85;;
2452;SDS011;63678;47.994;7.854;2023-05-07T01:33:38;10.63;;;3.80;;
2452;SDS011;63678;47.994;7.854;2023-05-07T01:36:12;8.00;;;3.80;;
2452;SDS011;63678;47.994;7.854;2023-05-07T01:38:46;7.82;;;3.90;;
2452;SDS011;63678;47.994;7.854;2023-05-07T01:41:18;7.53;;;4.03;;
2452;SDS011;63678;47.994;7.854;2023-05-07T01:43:51;6.70;;;3.72;;
2452;SDS011;63678;47.994;7.854;2023-05-07T01:46:25;7.15;;;4.00;;
2452;SDS011;63678;47.994;7.854;2023-05-07T01:48:59;6.60;;;3.50;;
2452;SDS011;63678;47.994;7.854;2023-05-07T01:51:31;7.13;;;3.53;;
2452;SDS011;63678;47.994;7.854;2023-05-07T01:54:04;7.75;;;3.90;;
2452;SDS011;63678;47.994;7.854;2023-05-07T01:56:37;6.32;;;3.78;;
2452;SDS011;63678;47.994;7.854;2023-05-07T01:59:10;5.57;;;3.88;;
2452;SDS011;63678;47.994;7.854;2023-05-07T02:01:42;7.47;;;3.63;;
2452;SDS011;63678;47.994;7.854;2023-05-07T02:04:15;7.95;;;4.05;;
2452;SDS011;63678;47.994;7.854;2023-05-07T02:06:48;7.32;;;3.67;;
2452;SDS011;63678;47.994;7.854;2023-05-07T02:09:21;11.43;;;3.90;;
2452;SDS011;63678;47.994;7.854;2023-05-07T02:11:54;7.05;;;3.63;;
2452;SDS011;63678;47.994;7.854;2023-05-07T02:14:28;6.07;;;3.33;;
2452;SDS011;63678;47.994;7.854;2023-05-07T02:17:00;6.75;;;3.83;;
2452;SDS011;63678;47.994;7.854;2023-05-07T02:19:32;6.63;;;4.03;;
2452;SDS011;63678;47.994;7.854;2023-05-07T02:22:05;7.10;;;3.92;;
2452;SDS011;63678;47.994;7.854;2023-05-07T02:25:31;7.18;;;3.78;;
2452;SDS011;63678;47.994;7.854;2023-05-07T02:28:04;6.77;;;3.80;;
2452;SDS011;63678;47.994;7.854;2023-05-07T02:30:59;7.85;;;3.75;;
2452;SDS011;63678;47.994;7.854;2023-05-07T02:33:33;6.00;;;4.05;;
2452;SDS011;63678;47.994;7.854;2023-05-07T02:36:10;7.22;;;3.70;;
2452;SDS011;63678;47.994;7.854;2023-05-07T02:38:49;5.35;;;3.53;;
2452;SDS011;63678;47.994;7.854;2023-05-07T02:41:22;7.67;;;3.63;;
2452;SDS011;63678;47.994;7.854;2023-05-07T02:43:59;6.05;;;3.47;;
2452;SDS011;63678;47.994;7.854;2023-05-07T02:46:32;6.95;;;3.53;;
2452;SDS011;63678;47.994;7.854;2023-05-07T02:49:08;8.20;;;3.95;;
2452;SDS011;63678;47.994;7.854;2023-05-07T02:51:40;6.65;;;3.83;;
2452;SDS011;63678;47.994;7.854;2023-05-07T02:54:18;7.33;;;3.97;;
2452;SDS011;63678;47.994;7.854;2023-05-07T02:56:51;8.35;;;3.60;;
2452;SDS011;63678;47.994;7.854;2023-05-07T02:59:23;7.30;;;3.95;;
2452;SDS011;63678;47.994;7.854;2023-05-07T03:01:57;6.38;;;3.90;;
2452;SDS011;63678;47.994;7.854;2023-05-07T03:04:29;6.57;;;3.75;;
2452;SDS011;63678;47.994;7.854;2023-05-07T03:07:02;7.83;;;4.10;;
2452;SDS011;63678;47.994;7.854;2023-05-07T03:09:34;6.57;;;4.32;;
2452;SDS011;63678;47.994;7.854;2023-05-07T03:12:07;6.57;;;4.47;;
2452;SDS011;63678;47.994;7.854;2023-05-07T03:14:39;5.55;;;3.60;;
2452;SDS011;63678;47.994;7.854;2023-05-07T03:17:12;6.47;;;4.22;;
2452;SDS011;63678;47.994;7.854;2023-05-07T03:19:44;7.53;;;4.40;;
2452;SDS011;63678;47.994;7.854;2023-05-07T03:22:16;8.10;;;4.25;;
2452;SDS011;63678;47.994;7.854;2023-05-07T03:24:48;8.07;;;4.28;;
2452;SDS011;63678;47.994;7.854;2023-05-07T03:27:20;7.00;;;4.45;;
2452;SDS011;63678;47.994;7.854;2023-05-07T03:29:56;6.88;;;4.40;;
2452;SDS011;63678;47.994;7.854;2023-05-07T03:32:29;8.30;;;4.70;;
2452;SDS011;63678;47.994;7.854;2023-05-07T03:35:01;8.88;;;4.15;;
2452;SDS011;63678;47.994;7.854;2023-05-07T03:37:35;7.10;;;4.20;;
2452;SDS011;63678;47.994;7.854;2023-05-07T03:40:07;9.05;;;4.32;;
2452;SDS011;63678;47.994;7.854;2023-05-07T03:42:50;7.10;;;4.20;;
2452;SDS011;63678;47.994;7.854;2023-05-07T03:45:24;6.20;;;4.07;;
2452;SDS011;63678;47.994;7.854;2023-05-07T03:48:07;8.65;;;4.43;;
2452;SDS011;63678;47.994;7.854;2023-05-07T03:50:39;8.07;;;4.47;;
2452;SDS011;63678;47.994;7.854;2023-05-07T03:53:12;6.65;;;4.32;;
2452;SDS011;63678;47.994;7.854;2023-05-07T03:55:44;6.63;;;4.15;;
2452;SDS011;63678;47.994;7.854;2023-05-07T03:58:16;7.67;;;4.53;;
2452;SDS011;63678;47.994;7.854;2023-05-07T04:00:48;7.22;;;4.25;;
2452;SDS011;63678;47.994;7.854;2023-05-07T04:03:29;6.32;;;4.30;;
2452;SDS011;63678;47.994;7.854;2023-05-07T04:06:03;7.40;;;4.40;;
2452;SDS011;63678;47.994;7.854;2023-05-07T04:08:38;9.10;;;4.20;;
2452;SDS011;63678;47.994;7.854;2023-05-07T04:11:11;7.83;;;4.40;;
2452;SDS011;63678;47.994;7.854;2023-05-07T04:13:44;9.00;;;4.40;;
2452;SDS011;63678;47.994;7.854;2023-05-07T04:16:16;8.10;;;4.45;;
2452;SDS011;63678;47.994;7.854;2023-05-07T04:18:48;7.43;;;4.30;;
2452;SDS011;63678;47.994;7.854;2023-05-07T04:21:21;8.18;;;5.00;;
2452;SDS011;63678;47.994;7.854;2023-05-07T04:23:55;8.63;;;4.50;;
2452;SDS011;63678;47.994;7.854;2023-05-07T04:26:28;7.05;;;4.20;;
2452;SDS011;63678;47.994;7.854;2023-05-07T04:29:01;8.85;;;4.35;;
2452;SDS011;63678;47.994;7.854;2023-05-07T04:31:36;7.00;;;4.13;;
2452;SDS011;63678;47.994;7.854;2023-05-07T04:34:10;8.35;;;4.28;;
2452;SDS011;63678;47.994;7.854;2023-05-07T04:36:42;6.53;;;4.03;;
2452;SDS011;63678;47.994;7.854;2023-05-07T04:39:17;6.25;;;4.22;;
2452;SDS011;63678;47.994;7.854;2023-05-07T04:41:51;6.65;;;4.38;;
2452;SDS011;63678;47.994;7.854;2023-05-07T04:44:23;12.15;;;5.20;;
2452;SDS011;63678;47.994;7.854;2023-05-07T04:46:56;10.02;;;4.57;;
2452;SDS011;63678;47.994;7.854;2023-05-07T04:49:29;6.77;;;4.30;;
2452;SDS011;63678;47.994;7.854;2023-05-07T04:52:02;7.65;;;4.28;;
2452;SDS011;63678;47.994;7.854;2023-05-07T04:54:36;7.57;;;4.60;;
2452;SDS011;63678;47.994;7.854;2023-05-07T04:57:09;7.93;;;5.10;;
2452;SDS011;63678;47.994;7.854;2023-05-07T04:59:41;9.73;;;4.70;;
2452;SDS011;63678;47.994;7.854;2023-05-07T05:02:14;7.73;;;4.57;;
2452;SDS011;63678;47.994;7.854;2023-05-07T05:04:52;8.45;;;4.68;;
2452;SDS011;63678;47.994;7.854;2023-05-07T05:07:24;10.00;;;4.90;;
2452;SDS011;63678;47.994;7.854;2023-05-07T05:09:57;8.00;;;4.65;;
2452;SDS011;63678;47.994;7.854;2023-05-07T05:12:29;6.57;;;4.40;;
2452;SDS011;63678;47.994;7.854;2023-05-07T05:15:04;6.70;;;4.60;;
2452;SDS011;63678;47.994;7.854;2023-05-07T05:17:37;8.48;;;4.38;;
2452;SDS011;63678;47.994;7.854;2023-05-07T05:20:10;5.50;;;4.47;;
2452;SDS011;63678;47.994;7.854;2023-05-07T05:22:44;6.15;;;4.47;;
2452;SDS011;63678;47.994;7.854;2023-05-07T05:25:17;7.65;;;4.53;;
2452;SDS011;63678;47.994;7.854;2023-05-07T05:27:50;7.13;;;4.40;;
2452;SDS011;63678;47.994;7.854;2023-05-07T05:30:22;11.50;;;4.65;;
2452;SDS011;63678;47.994;7.854;2023-05-07T05:32:55;6.97;;;4.40;;
2452;SDS011;63678;47.994;7.854;2023-05-07T05:35:30;7.07;;;4.65;;
2452;SDS011;63678;47.994;7.854;2023-05-07T05:38:06;7.93;;;4.70;;
2452;SDS011;63678;47.994;7.854;2023-05-07T05:40:38;7.37;;;4.40;;
2452;SDS011;63678;47.994;7.854;2023-05-07T05:43:11;8.00;;;4.47;;
2452;SDS011;63678;47.994;7.854;2023-05-07T05:45:43;5.88;;;4.22;;
2452;SDS011;63678;47.994;7.854;2023-05-07T05:48:15;8.38;;;5.05;;
2452;SDS011;63678;47.994;7.854;2023-05-07T05:50:47;8.88;;;4.70;;
2452;SDS011;63678;47.994;7.854;2023-05-07T05:53:22;8.20;;;4.30;;
2452;SDS011;63678;47.994;7.854;2023-05-07T05:55:54;9.85;;;4.30;;
2452;SDS011;63678;47.994;7.854;2023-05-07T05:58:27;9.60;;;4.43;;
2452;SDS011;63678;47.994;7.854;2023-05-07T06:01:04;7.63;;;4.25;;
2452;SDS011;63678;47.994;7.854;2023-05-07T06:03:38;5.93;;;3.85;;
2452;SDS011;63678;47.994;7.854;2023-05-07T06:06:16;6.70;;;3.53;;
2452;SDS011;63678;47.994;7.854;2023-05-07T06:08:49;9.73;;;3.67;;
2452;SDS011;63678;47.994;7.854;2023-05-07T06:11:28;6.97;;;3.92;;
2452;SDS011;63678;47.994;7.854;2023-05-07T06:14:00;9.50;;;4.03;;
2452;SDS011;63678;47.994;7.854;2023-05-07T06:16:34;7.97;;;4.00;;
2452;SDS011;63678;47.994;7.854;2023-05-07T06:19:06;5.70;;;3.70;;
2452;SDS011;63678;47.994;7.854;2023-05-07T06:21:39;5.85;;;3.90;;
2452;SDS011;63678;47.994;7.854;2023-05-07T06:24:11;9.73;;;4.13;;
2452;SDS011;63678;47.994;7.854;2023-05-07T06:26:44;6.80;;;4.20;;
2452;SDS011;63678;47.994;7.854;2023-05-07T06:29:17;6.90;;;3.83;;
2452;SDS011;63678;47.994;7.854;2023-05-07T06:31:50;6.50;;;3.90;;
2452;SDS011;63678;47.994;7.854;2023-05-07T06:34:22;5.97;;;3.75;;
2452;SDS011;63678;47.994;7.854;2023-05-07T06:36:55;7.32;;;4.07;;
2452;SDS011;63678;47.994;7.854;2023-05-07T06:39:36;11.32;;;4.80;;
2452;SDS011;63678;47.994;7.854;2023-05-07T06:42:09;6.35;;;4.03;;
2452;SDS011;63678;47.994;7.854;2023-05-07T06:44:45;7.43;;;3.80;;
2452;SDS011;63678;47.994;7.854;2023-05-07T06:47:20;9.40;;;3.75;;
2452;SDS011;63678;47.994;7.854;2023-05-07T06:49:56;7.18;;;4.45;;
2452;SDS011;63678;47.994;7.854;2023-05-07T06:52:33;7.25;;;4.40;;
2452;SDS011;63678;47.994;7.854;2023-05-07T06:55:05;10.00;;;4.75;;
2452;SDS011;63678;47.994;7.854;2023-05-07T06:57:38;5.77;;;4.23;;
2452;SDS011;63678;47.994;7.854;2023-05-07T07:00:11;9.38;;;4.35;;
2452;SDS011;63678;47.994;7.854;2023-05-07T07:02:51;10.00;;;5.13;;
2452;SDS011;63678;47.994;7.854;2023-05-07T07:05:26;8.35;;;4.88;;
2452;SDS011;63678;47.994;7.854;2023-05-07T07:08:00;8.10;;;4.55;;
2452;SDS011;63678;47.994;7.854;2023-05-07T07:10:32;8.43;;;4.67;;
2452;SDS011;63678;47.994;7.854;2023-05-07T07:13:06;7.38;;;4.68;;
2452;SDS011;63678;47.994;7.854;2023-05-07T07:15:38;6.93;;;4.75;;
2452;SDS011;63678;47.994;7.854;2023-05-07T07:18:12;10.85;;;4.90;;
2452;SDS011;63678;47.994;7.854;2023-05-07T07:20:44;9.00;;;4.55;;
2452;SDS011;63678;47.994;7.854;2023-05-07T07:23:17;7.07;;;4.27;;
2452;SDS011;63678;47.994;7.854;2023-05-07T07:25:49;10.65;;;3.97;;
2452;SDS011;63678;47.994;7.854;2023-05-07T07:28:22;6.63;;;4.40;;
2452;SDS011;63678;47.994;7.854;2023-05-07T07:30:54;6.65;;;3.78;;
2452;SDS011;63678;47.994;7.854;2023-05-07T07:33:26;7.85;;;4.18;;
2452;SDS011;63678;47.994;7.854;2023-05-07T07:36:00;5.93;;;4.20;;
2452;SDS011;63678;47.994;7.854;2023-05-07T07:38:33;8.70;;;4.28;;
2452;SDS011;63678;47.994;7.854;2023-05-07T07:41:07;8.55;;;4.10;;
2452;SDS011;63678;47.994;7.854;2023-05-07T07:43:41;6.93;;;4.10;;
2452;SDS011;63678;47.994;7.854;2023-05-07T07:46:13;8.32;;;4.47;;
2452;SDS011;63678;47.994;7.854;2023-05-07T07:48:47;8.07;;;4.33;;
2452;SDS011;63678;47.994;7.854;2023-05-07T07:51:19;9.25;;;4.30;;
2452;SDS011;63678;47.994;7.854;2023-05-07T07:53:52;7.45;;;4.10;;
2452;SDS011;63678;47.994;7.854;2023-05-07T07:56:29;8.35;;;4.55;;
2452;SDS011;63678;47.994;7.854;2023-05-07T07:59:02;7.03;;;4.40;;
2452;SDS011;63678;47.994;7.854;2023-05-07T08:01:35;9.30;;;4.70;;
2452;SDS011;63678;47.994;7.854;2023-05-07T08:04:09;8.30;;;3.92;;
2452;SDS011;63678;47.994;7.854;2023-05-07T08:06:45;6.38;;;4.47;;
2452;SDS011;63678;47.994;7.854;2023-05-07T08:09:18;7.63;;;4.90;;
2452;SDS011;63678;47.994;7.854;2023-05-07T08:11:51;7.68;;;4.30;;
2452;SDS011;63678;47.994;7.854;2023-05-07T08:14:23;6.90;;;3.97;;
2452;SDS011;63678;47.994;7.854;2023-05-07T08:16:55;8.23;;;4.57;;
2452;SDS011;63678;47.994;7.854;2023-05-07T08:19:28;6.53;;;4.05;;
2452;SDS011;63678;47.994;7.854;2023-05-07T08:22:01;7.32;;;4.75;;
2452;SDS011;63678;47.994;7.854;2023-05-07T08:24:37;8.32;;;4.60;;
2452;SDS011;63678;47.994;7.854;2023-05-07T08:27:09;6.40;;;4.30;;
2452;SDS011;63678;47.994;7.854;2023-05-07T08:29:44;7.93;;;4.65;;
2452;SDS011;63678;47.994;7.854;2023-05-07T08:32:19;7.15;;;4.55;;
2452;SDS011;63678;47.994;7.854;2023-05-07T08:34:52;11.63;;;4.55;;
2452;SDS011;63678;47.994;7.854;2023-05-07T08:37:25;8.52;;;5.32;;
2452;SDS011;63678;47.994;7.854;2023-05-07T08:39:58;6.90;;;5.07;;
2452;SDS011;63678;47.994;7.854;2023-05-07T08:42:35;6.55;;;4.50;;
2452;SDS011;63678;47.994;7.854;2023-05-07T08:45:10;6.75;;;4.32;;
2452;SDS011;63678;47.994;7.854;2023-05-07T08:47:46;8.18;;;4.88;;
2452;SDS011;63678;47.994;7.854;2023-05-07T08:50:26;5.90;;;4.40;;
2452;SDS011;63678;47.994;7.854;2023-05-07T08:52:58;8.00;;;4.30;;
2452;SDS011;63678;47.994;7.854;2023-05-07T08:55:32;7.95;;;4.47;;
2452;SDS011;63678;47.994;7.854;2023-05-07T08:58:04;6.53;;;4.72;;
2452;SDS011;63678;47.994;7.854;2023-05-07T09:00:41;8.68;;;4.70;;
2452;SDS011;63678;47.994;7.854;2023-05-07T09:03:13;7.30;;;4.78;;
2452;SDS011;63678;47.994;7.854;2023-05-07T09:05:50;7.13;;;4.67;;
2452;SDS011;63678;47.994;7.854;2023-05-07T09:08:24;7.10;;;4.70;;
2452;SDS011;63678;47.994;7.854;2023-05-07T09:11:02;6.57;;;4.57;;
2452;SDS011;63678;47.994;7.854;2023-05-07T09:13:34;6.95;;;4.20;;
2452;SDS011;63678;47.994;7.854;2023-05-07T09:16:11;10.90;;;4.68;;
2452;SDS011;63678;47.994;7.854;2023-05-07T09:18:46;8.10;;;4.37;;
2452;SDS011;63678;47.994;7.854;2023-05-07T09:21:22;9.07;;;4.80;;
2452;SDS011;63678;47.994;7.854;2023-05-07T09:23:57;9.70;;;5.60;;
2452;SDS011;63678;47.994;7.854;2023-05-07T09:26:43;10.63;;;5.25;;
2452;SDS011;63678;47.994;7.854;2023-05-07T09:29:19;8.00;;;5.07;;
2452;SDS011;63678;47.994;7.854;2023-05-07T09:31:51;7.00;;;4.40;;
2452;SDS011;63678;47.994;7.854;2023-05-07T09:34:24;7.38;;;4.07;;
2452;SDS011;63678;47.994;7.854;2023-05-07T09:36:58;8.27;;;4.85;;
2452;SDS011;63678;47.994;7.854;2023-05-07T09:39:47;6.78;;;4.22;;
2452;SDS011;63678;47.994;7.854;2023-05-07T09:42:25;6.40;;;4.13;;
2452;SDS011;63678;47.994;7.854;2023-05-07T09:45:01;6.50;;;4.13;;
2452;SDS011;63678;47.994;7.854;2023-05-07T09:47:40;9.27;;;4.22;;
2452;SDS011;63678;47.994;7.854;2023-05-07T09:50:19;8.00;;;4.93;;
2452;SDS011;63678;47.994;7.854;2023-05-07T09:52:53;9.48;;;4.30;;
2452;SDS011;63678;47.994;7.854;2023-05-07T09:55:28;7.55;;;4.65;;
2452;SDS011;63678;47.994;7.854;2023-05-07T09:58:01;9.53;;;4.70;;
2452;SDS011;63678;47.994;7.854;2023-05-07T10:00:35;7.00;;;4.60;;
2452;SDS011;63678;47.994;7.854;2023-05-07T10:03:14;8.35;;;4.85;;
2452;SDS011;63678;47.994;7.854;2023-05-07T10:05:58;8.70;;;5.72;;
2452;SDS011;63678;47.994;7.854;2023-05-07T10:08:32;9.20;;;4.90;;
2452;SDS011;63678;47.994;7.854;2023-05-07T10:11:06;9.70;;;5.13;;
2452;SDS011;63678;47.994;7.854;2023-05-07T10:13:40;9.00;;;4.88;;
2452;SDS011;63678;47.994;7.854;2023-05-07T10:16:15;8.55;;;5.10;;
2452;SDS011;63678;47.994;7.854;2023-05-07T10:18:51;8.40;;;4.40;;
2452;SDS011;63678;47.994;7.854;2023-05-07T10:21:27;10.07;;;4.90;;
2452;SDS011;63678;47.994;7.854;2023-05-07T10:24:05;11.80;;;5.50;;
2452;SDS011;63678;47.994;7.854;2023-05-07T10:26:48;8.45;;;5.28;;
2452;SDS011;63678;47.994;7.854;2023-05-07T10:32:12;9.52;;;6.00;;
2452;SDS011;63678;47.994;7.854;2023-05-07T10:35:06;14.18;;;6.68;;
2452;SDS011;63678;47.994;7.854;2023-05-07T10:37:54;11.13;;;6.00;;
2452;SDS011;63678;47.994;7.854;2023-05-07T10:40:30;14.32;;;7.28;;
2452;SDS011;63678;47.994;7.854;2023-05-07T10:43:04;10.60;;;6.40;;
2452;SDS011;63678;47.994;7.854;2023-05-07T10:46:15;13.50;;;6.68;;
2452;SDS011;63678;47.994;7.854;2023-05-07T10:51:40;15.07;;;6.60;;
2452;SDS011;63678;47.994;7.854;2023-05-07T10:54:25;11.73;;;6.20;;
2452;SDS011;63678;47.994;7.854;2023-05-07T11:03:15;9.15;;;5.20;;
2452;SDS011;63678;47.994;7.854;2023-05-07T11:14:43;7.28;;;5.13;;
2452;SDS011;63678;47.994;7.854;2023-05-07T11:17:20;9.23;;;5.53;;
2452;SDS011;63678;47.994;7.854;2023-05-07T11:20:01;7.87;;;4.70;;
2452;SDS011;63678;47.994;7.854;2023-05-07T11:22:47;7.47;;;4.70;;
2452;SDS011;63678;47.994;7.854;2023-05-07T11:25:40;8.55;;;5.13;;
2452;SDS011;63678;47.994;7.854;2023-05-07T11:28:20;8.95;;;5.15;;
2452;SDS011;63678;47.994;7.854;2023-05-07T11:31:04;7.65;;;4.97;;
2452;SDS011;63678;47.994;7.854;2023-05-07T11:33:38;8.07;;;5.17;;
2452;SDS011;63678;47.994;7.854;2023-05-07T11:36:14;10.57;;;4.88;;
2452;SDS011;63678;47.994;7.854;2023-05-07T11:38:51;9.63;;;5.00;;
2452;SDS011;63678;47.994;7.854;2023-05-07T11:41:34;8.15;;;4.93;;
2452;SDS011;63678;47.994;7.854;2023-05-07T11:44:08;7.22;;;5.10;;
2452;SDS011;63678;47.994;7.854;2023-05-07T11:46:42;7.63;;;4.83;;
2452;SDS011;63678;47.994;7.854;2023-05-07T11:49:16;7.78;;;4.75;;
2452;SDS011;63678;47.994;7.854;2023-05-07T11:51:49;8.55;;;5.40;;
2452;SDS011;63678;47.994;7.854;2023-05-07T11:54:21;7.45;;;5.07;;
2452;SDS011;63678;47.994;7.854;2023-05-07T11:56:55;8.57;;;5.05;;
2452;SDS011;63678;47.994;7.854;2023-05-07T11:59:28;7.17;;;5.17;;
2452;SDS011;63678;47.994;7.854;2023-05-07T12:02:00;9.05;;;5.32;;
2452;SDS011;63678;47.994;7.854;2023-05-07T12:04:33;11.98;;;5.28;;
2452;SDS011;63678;47.994;7.854;2023-05-07T12:07:05;8.73;;;4.80;;
2452;SDS011;63678;47.994;7.854;2023-05-07T12:09:48;9.77;;;5.35;;
2452;SDS011;63678;47.994;7.854;2023-05-07T12:12:20;8.37;;;5.60;;
2452;SDS011;63678;47.994;7.854;2023-05-07T12:14:52;8.75;;;5.25;;
2452;SDS011;63678;47.994;7.854;2023-05-07T12:17:25;6.55;;;4.97;;
2452;SDS011;63678;47.994;7.854;2023-05-07T12:19:57;7.95;;;5.00;;
2452;SDS011;63678;47.994;7.854;2023-05-07T12:22:29;7.20;;;4.95;;
2452;SDS011;63678;47.994;7.854;2023-05-07T12:25:02;8.93;;;5.67;;
2452;SDS011;63678;47.994;7.854;2023-05-07T12:27:36;7.95;;;5.00;;
2452;SDS011;63678;47.994;7.854;2023-05-07T12:30:10;8.25;;;5.28;;
2452;SDS011;63678;47.994;7.854;2023-05-07T12:32:44;9.18;;;5.13;;
2452;SDS011;63678;47.994;7.854;2023-05-07T12:35:17;6.95;;;5.43;;
2452;SDS011;63678;47.994;7.854;2023-05-07T12:37:58;6.57;;;5.10;;
2452;SDS011;63678;47.994;7.854;2023-05-07T12:40:38;7.18;;;5.50;;
2452;SDS011;63678;47.994;7.854;2023-05-07T12:43:34;8.25;;;5.18;;
2452;SDS011;63678;47.994;7.854;2023-05-07T12:46:06;7.45;;;4.53;;
2452;SDS011;63678;47.994;7.854;2023-05-07T12:48:43;7.28;;;4.50;;
2452;SDS011;63678;47.994;7.854;2023-05-07T12:51:17;6.40;;;4.40;;
2452;SDS011;63678;47.994;7.854;2023-05-07T12:53:49;8.55;;;4.53;;
2452;SDS011;63678;47.994;7.854;2023-05-07T12:56:22;7.22;;;4.32;;
2452;SDS011;63678;47.994;7.854;2023-05-07T12:58:57;9.40;;;4.97;;
2452;SDS011;63678;47.994;7.854;2023-05-07T13:01:29;7.95;;;5.00;;
2452;SDS011;63678;47.994;7.854;2023-05-07T13:04:04;8.33;;;4.80;;
2452;SDS011;63678;47.994;7.854;2023-05-07T13:06:37;6.43;;;4.53;;
2452;SDS011;63678;47.994;7.854;2023-05-07T13:09:09;8.95;;;4.97;;
2452;SDS011;63678;47.994;7.854;2023-05-07T13:11:41;8.27;;;4.70;;
2452;SDS011;63678;47.994;7.854;2023-05-07T13:14:16;10.93;;;5.57;;
2452;SDS011;63678;47.994;7.854;2023-05-07T13:16:49;7.40;;;4.70;;
2452;SDS011;63678;47.994;7.854;2023-05-07T13:19:21;7.40;;;4.85;;
2452;SDS011;63678;47.994;7.854;2023-05-07T13:21:53;7.30;;;4.50;;
2452;SDS011;63678;47.994;7.854;2023-05-07T13:24:25;8.48;;;4.53;;
2452;SDS011;63678;47.994;7.854;2023-05-07T13:26:58;8.52;;;4.47;;
2452;SDS011;63678;47.994;7.854;2023-05-07T13:29:30;6.93;;;4.90;;
2452;SDS011;63678;47.994;7.854;2023-05-07T13:32:03;7.38;;;4.40;;
2452;SDS011;63678;47.994;7.854;2023-05-07T13:34:35;8.02;;;4.90;;
2452;SDS011;63678;47.994;7.854;2023-05-07T13:37:08;7.95;;;5.10;;
2452;SDS011;63678;47.994;7.854;2023-05-07T13:39:42;8.10;;;4.72;;
2452;SDS011;63678;47.994;7.854;2023-05-07T13:42:14;7.30;;;5.37;;
2452;SDS011;63678;47.994;7.854;2023-05-07T13:44:47;7.70;;;4.70;;
2452;SDS011;63678;47.994;7.854;2023-05-07T13:47:19;7.82;;;5.07;;
2452;SDS011;63678;47.994;7.854;2023-05-07T13:49:54;7.28;;;4.95;;
2452;SDS011;63678;47.994;7.854;2023-05-07T13:52:26;7.93;;;4.85;;
2452;SDS011;63678;47.994;7.854;2023-05-07T13:54:59;6.53;;;4.30;;
2452;SDS011;63678;47.994;7.854;2023-05-07T13:57:31;10.45;;;4.80;;
2452;SDS011;63678;47.994;7.854;2023-05-07T14:00:04;6.68;;;4.93;;
2452;SDS011;63678;47.994;7.854;2023-05-07T14:02:45;7.90;;;4.80;;
2452;SDS011;63678;47.994;7.854;2023-05-07T14:05:17;7.97;;;5.13;;
2452;SDS011;63678;47.994;7.854;2023-05-07T14:07:51;7.90;;;5.37;;
2452;SDS011;63678;47.994;7.854;2023-05-07T14:10:24;7.38;;;5.30;;
2452;SDS011;63678;47.994;7.854;2023-05-07T14:12:56;9.32;;;5.50;;
2452;SDS011;63678;47.994;7.854;2023-05-07T14:15:29;7.53;;;5.20;;
2452;SDS011;63678;47.994;7.854;2023-05-07T14:18:03;7.43;;;5.28;;
2452;SDS011;63678;47.994;7.854;2023-05-07T14:20:36;12.33;;;5.53;;
2452;SDS011;63678;47.994;7.854;2023-05-07T14:23:09;9.73;;;5.22;;
2452;SDS011;63678;47.994;7.854;2023-05-07T14:25:41;8.57;;;5.22;;
2452;SDS011;63678;47.994;7.854;2023-05-07T14:28:15;9.05;;;5.45;;
2452;SDS011;63678;47.994;7.854;2023-05-07T14:30:47;9.02;;;5.57;;
2452;SDS011;63678;47.994;7.854;2023-05-07T14:33:19;7.37;;;5.10;;
2452;SDS011;63678;47.994;7.854;2023-05-07T14:35:51;8.88;;;5.10;;
2452;SDS011;63678;47.994;7.854;2023-05-07T14:38:24;8.98;;;4.82;;
2452;SDS011;63678;47.994;7.854;2023-05-07T14:40:57;9.85;;;4.80;;
2452;SDS011;63678;47.994;7.854;2023-05-07T14:43:29;7.18;;;4.38;;
2452;SDS011;63678;47.994;7.854;2023-05-07T14:46:01;7.13;;;4.57;;
2452;SDS011;63678;47.994;7.854;2023-05-07T14:48:33;8.00;;;4.55;;
2452;SDS011;63678;47.994;7.854;2023-05-07T14:51:05;5.95;;;4.05;;
2452;SDS011;63678;47.994;7.854;2023-05-07T14:53:38;6.40;;;4.10;;
2452;SDS011;63678;47.994;7.854;2023-05-07T14:56:12;8.13;;;4.35;;
2452;SDS011;63678;47.994;7.854;2023-05-07T14:58:45;6.87;;;4.07;;
2452;SDS011;63678;47.994;7.854;2023-05-07T15:01:20;8.93;;;4.53;;
2452;SDS011;63678;47.994;7.854;2023-05-07T15:03:53;7.22;;;4.35;;
2452;SDS011;63678;47.994;7.854;2023-05-07T15:06:26;5.22;;;3.00;;
2452;SDS011;63678;47.994;7.854;2023-05-07T15:08:58;6.38;;;3.08;;
2452;SDS011;63678;47.994;7.854;2023-05-07T15:11:31;8.03;;;3.00;;
2452;SDS011;63678;47.994;7.854;2023-05-07T15:14:03;4.78;;;2.55;;
2452;SDS011;63678;47.994;7.854;2023-05-07T15:16:36;4.30;;;2.90;;
2452;SDS011;63678;47.994;7.854;2023-05-07T15:19:08;5.03;;;3.00;;
2452;SDS011;63678;47.994;7.854;2023-05-07T15:21:40;5.45;;;3.10;;
2452;SDS011;63678;47.994;7.854;2023-05-07T15:24:12;4.57;;;2.60;;
2452;SDS011;63678;47.994;7.854;2023-05-07T15:26:45;5.40;;;2.90;;
2452;SDS011;63678;47.994;7.854;2023-05-07T15:29:18;5.45;;;3.22;;
2452;SDS011;63678;47.994;7.854;2023-05-07T15:31:50;6.38;;;2.85;;
2452;SDS011;63678;47.994;7.854;2023-05-07T15:34:23;5.53;;;3.25;;
2452;SDS011;63678;47.994;7.854;2023-05-07T15:36:55;5.00;;;2.80;;
2452;SDS011;63678;47.994;7.854;2023-05-07T15:39:30;4.65;;;2.60;;
2452;SDS011;63678;47.994;7.854;2023-05-07T15:42:03;4.55;;;2.78;;
2452;SDS011;63678;47.994;7.854;2023-05-07T15:44:35;7.03;;;3.10;;
2452;SDS011;63678;47.994;7.854;2023-05-07T15:47:07;5.10;;;3.42;;
2452;SDS011;63678;47.994;7.854;2023-05-07T15:49:40;6.77;;;3.10;;
2452;SDS011;63678;47.994;7.854;2023-05-07T15:52:13;6.20;;;3.40;;
2452;SDS011;63678;47.994;7.854;2023-05-07T15:54:46;5.63;;;3.17;;
2452;SDS011;63678;47.994;7.854;2023-05-07T15:57:19;5.72;;;2.80;;
2452;SDS011;63678;47.994;7.854;2023-05-07T15:59:52;5.72;;;2.60;;
2452;SDS011;63678;47.994;7.854;2023-05-07T16:02:24;4.77;;;2.73;;
2452;SDS011;63678;47.994;7.854;2023-05-07T16:04:57;5.43;;;2.80;;